Time;durP1;ratioP1;P1;durP2;ratioP2;P2;SDS_P1;SDS_P2;PMS_P1;PMS_P2;Temp;Humidity;BMP_temperature;BMP_pressure;BME280_temperature;BME280_humidity;BME280_pressure;Samples;Min_cycle;Max_cycle;Signal;HPM_P1;HPM_P2
2022/08/09 00:01:26;;;;;;;6.10;4.15;;;;;;;;;;5012272;28;20045;-84
2022/08/09 00:03:52;;;;;;;4.30;3.70;;;;;;;;;;5013114;28;20038;-83
2022/08/09 00:06:18;;;;;;;4.78;3.70;;;;;;;;;;5012703;28;20172;-84
2022/08/09 00:08:47;;;;;;;6.85;3.80;;;;;;;;;;5012301;28;20124;-84
2022/08/09 00:11:14;;;;;;;5.97;4.20;;;;;;;;;;5012902;28;20042;-84
2022/08/09 00:13:40;;;;;;;3.75;3.00;;;;;;;;;;5011768;28;20030;-84
2022/08/09 00:16:06;;;;;;;4.03;3.03;;;;;;;;;;4995564;28;20505;-83
2022/08/09 00:18:33;;;;;;;4.93;3.35;;;;;;;;;;5013555;28;20052;-84
2022/08/09 00:21:00;;;;;;;4.65;3.17;;;;;;;;;;5011929;28;20054;-83
2022/08/09 00:23:26;;;;;;;6.18;3.97;;;;;;;;;;5012178;28;20100;-84
2022/08/09 00:25:52;;;;;;;4.00;3.60;;;;;;;;;;5012354;28;20046;-84
2022/08/09 00:28:18;;;;;;;5.93;4.10;;;;;;;;;;4995666;28;20092;-84
2022/08/09 00:30:44;;;;;;;6.05;4.43;;;;;;;;;;5012662;28;20515;-84
2022/08/09 00:33:11;;;;;;;8.45;5.40;;;;;;;;;;5012131;28;20168;-83
2022/08/09 00:35:37;;;;;;;5.00;4.50;;;;;;;;;;4995021;28;20521;-84
2022/08/09 00:38:03;;;;;;;4.78;4.10;;;;;;;;;;5012288;28;20475;-84
2022/08/09 00:40:29;;;;;;;5.20;4.50;;;;;;;;;;5012257;28;20077;-84
2022/08/09 00:42:55;;;;;;;7.30;4.75;;;;;;;;;;5012218;28;20046;-84
2022/08/09 00:45:21;;;;;;;5.35;4.85;;;;;;;;;;5013084;28;20053;-83
2022/08/09 00:47:47;;;;;;;7.28;4.53;;;;;;;;;;5012923;28;20046;-84
2022/08/09 00:50:13;;;;;;;5.18;4.30;;;;;;;;;;4994326;28;20050;-84
2022/08/09 00:52:39;;;;;;;9.43;4.70;;;;;;;;;;4994688;28;20084;-84
2022/08/09 00:55:05;;;;;;;5.10;3.90;;;;;;;;;;4993417;28;20085;-84
2022/08/09 00:57:31;;;;;;;5.32;4.00;;;;;;;;;;5012359;28;20485;-84
2022/08/09 00:59:58;;;;;;;5.70;4.70;;;;;;;;;;5012227;28;20495;-84
2022/08/09 01:02:26;;;;;;;5.85;4.40;;;;;;;;;;5012156;28;20068;-84
2022/08/09 01:04:52;;;;;;;5.35;4.05;;;;;;;;;;5011135;28;20380;-84
2022/08/09 01:07:29;;;;;;;4.95;4.45;;;;;;;;;;4994503;28;20042;-84
2022/08/09 01:10:08;;;;;;;4.80;4.30;;;;;;;;;;5011994;28;20100;-84
2022/08/09 01:12:34;;;;;;;5.18;3.80;;;;;;;;;;5011630;28;20111;-83
2022/08/09 01:15:05;;;;;;;3.70;3.20;;;;;;;;;;5012125;28;20042;-84
2022/08/09 01:17:33;;;;;;;4.07;3.28;;;;;;;;;;4994599;28;20050;-83
2022/08/09 01:20:02;;;;;;;4.30;3.55;;;;;;;;;;5010632;28;20100;-84
2022/08/09 01:22:37;;;;;;;4.30;3.50;;;;;;;;;;5011788;28;20059;-84
2022/08/09 01:25:03;;;;;;;5.70;3.80;;;;;;;;;;5011850;28;20107;-83
2022/08/09 01:27:30;;;;;;;6.78;3.88;;;;;;;;;;5012027;28;20117;-83
2022/08/09 01:29:58;;;;;;;4.90;4.03;;;;;;;;;;5011699;28;20561;-84
2022/08/09 01:32:45;;;;;;;6.20;3.20;;;;;;;;;;5011400;28;20659;-84
2022/08/09 01:35:11;;;;;;;;;;;;;;;;;;5011583;28;20049;-83
2022/08/09 01:37:37;;;;;;;4.00;3.45;;;;;;;;;;4994260;28;19922;-84
2022/08/09 01:40:04;;;;;;;4.13;3.70;;;;;;;;;;4992748;28;20049;-84
2022/08/09 01:42:32;;;;;;;4.95;4.30;;;;;;;;;;5011043;28;20038;-84
2022/08/09 01:44:58;;;;;;;4.85;3.65;;;;;;;;;;5010569;28;20037;-84
2022/08/09 01:47:26;;;;;;;5.85;4.45;;;;;;;;;;5011716;28;20049;-83
2022/08/09 01:49:53;;;;;;;4.75;4.20;;;;;;;;;;4993034;28;20062;-83
2022/08/09 01:52:20;;;;;;;6.40;4.15;;;;;;;;;;4993236;28;20133;-83
2022/08/09 01:54:47;;;;;;;5.13;4.63;;;;;;;;;;5007922;28;20050;-84
2022/08/09 01:57:14;;;;;;;5.50;4.78;;;;;;;;;;4993697;28;20065;-83
2022/08/09 01:59:42;;;;;;;5.85;4.20;;;;;;;;;;4992865;28;20045;-84
2022/08/09 02:02:09;;;;;;;6.32;4.85;;;;;;;;;;5011387;28;20046;-84
2022/08/09 02:04:37;;;;;;;6.97;4.78;;;;;;;;;;5009696;28;20042;-84
2022/08/09 02:07:08;;;;;;;5.63;4.78;;;;;;;;;;4992413;28;20736;-84
2022/08/09 02:09:36;;;;;;;6.05;4.60;;;;;;;;;;5010740;28;20049;-84
2022/08/09 02:12:04;;;;;;;5.28;4.60;;;;;;;;;;4993692;28;20046;-83
2022/08/09 02:14:31;;;;;;;7.05;4.47;;;;;;;;;;5009847;28;20103;-83
2022/08/09 02:16:57;;;;;;;6.95;4.75;;;;;;;;;;5011100;28;20033;-83
2022/08/09 02:19:23;;;;;;;6.63;4.50;;;;;;;;;;5010419;28;20092;-84
2022/08/09 02:21:51;;;;;;;3.53;2.80;;;;;;;;;;5009606;28;20065;-83
2022/08/09 02:24:19;;;;;;;2.85;2.30;;;;;;;;;;4993319;28;20045;-84
2022/08/09 02:26:47;;;;;;;3.75;2.30;;;;;;;;;;4993588;28;20137;-84
2022/08/09 02:29:16;;;;;;;3.25;2.30;;;;;;;;;;5010231;28;20046;-83
2022/08/09 02:31:44;;;;;;;3.58;2.85;;;;;;;;;;4992879;28;20053;-84
2022/08/09 02:34:12;;;;;;;5.25;3.08;;;;;;;;;;5010392;28;20054;-84
2022/08/09 02:36:40;;;;;;;3.50;2.90;;;;;;;;;;5009866;28;20077;-83
2022/08/09 02:39:08;;;;;;;3.28;2.92;;;;;;;;;;5009474;28;20060;-84
2022/08/09 02:41:45;;;;;;;3.53;2.95;;;;;;;;;;5010973;28;20084;-84
2022/08/09 02:44:14;;;;;;;8.55;1.77;;;;;;;;;;4992763;28;20053;-84
2022/08/09 02:46:41;;;;;;;1.98;1.50;;;;;;;;;;5010285;28;20137;-83
2022/08/09 02:49:08;;;;;;;3.35;1.73;;;;;;;;;;5009561;28;20046;-84
2022/08/09 02:51:36;;;;;;;3.20;1.70;;;;;;;;;;5010083;28;20494;-83
2022/08/09 02:54:02;;;;;;;2.38;1.90;;;;;;;;;;4992887;28;20042;-83
2022/08/09 02:56:31;;;;;;;3.22;2.10;;;;;;;;;;4993038;28;20050;-83
2022/08/09 02:58:58;;;;;;;5.68;3.20;;;;;;;;;;4991779;28;20603;-83
2022/08/09 03:01:25;;;;;;;4.35;3.40;;;;;;;;;;5008675;28;20053;-83
2022/08/09 03:03:53;;;;;;;3.30;2.72;;;;;;;;;;5010740;28;20520;-83
2022/08/09 03:06:20;;;;;;;3.10;2.65;;;;;;;;;;5009955;28;20132;-83
2022/08/09 03:08:47;;;;;;;3.60;3.10;;;;;;;;;;5008966;28;20057;-83
2022/08/09 03:11:14;;;;;;;2.80;2.50;;;;;;;;;;5010094;28;20049;-83
2022/08/09 03:13:41;;;;;;;2.90;2.50;;;;;;;;;;5010133;28;20250;-84
2022/08/09 03:16:07;;;;;;;2.97;2.53;;;;;;;;;;5009314;28;20044;-83
2022/08/09 03:18:34;;;;;;;3.30;2.60;;;;;;;;;;5009971;28;20050;-83
2022/08/09 03:21:01;;;;;;;3.92;2.65;;;;;;;;;;5008852;28;20042;-83
2022/08/09 03:23:28;;;;;;;3.15;2.85;;;;;;;;;;4992203;28;20514;-83
2022/08/09 03:25:55;;;;;;;3.35;2.50;;;;;;;;;;4992681;28;20162;-83
2022/08/09 03:28:21;;;;;;;2.80;2.50;;;;;;;;;;5010282;28;20120;-84
2022/08/09 03:30:48;;;;;;;3.10;2.63;;;;;;;;;;5008673;28;20081;-83
2022/08/09 03:33:14;;;;;;;3.65;2.50;;;;;;;;;;4991298;28;20163;-84
2022/08/09 03:35:41;;;;;;;3.22;2.60;;;;;;;;;;5009153;28;20049;-84
2022/08/09 03:38:07;;;;;;;4.28;2.58;;;;;;;;;;5029654;28;20120;-84
2022/08/09 03:40:33;;;;;;;3.30;2.80;;;;;;;;;;5010505;28;20042;-83
2022/08/09 03:42:59;;;;;;;4.38;2.90;;;;;;;;;;5009845;28;20042;-83
2022/08/09 03:45:25;;;;;;;2.97;2.67;;;;;;;;;;5008637;28;20052;-83
2022/08/09 03:47:51;;;;;;;2.20;1.40;;;;;;;;;;5009865;28;20112;-83
2022/08/09 03:50:19;;;;;;;1.17;1.08;;;;;;;;;;5007648;28;20049;-83
2022/08/09 03:52:45;;;;;;;1.70;1.27;;;;;;;;;;4992309;28;20053;-83
2022/08/09 03:55:11;;;;;;;2.28;1.55;;;;;;;;;;5008757;28;20277;-83
2022/08/09 03:57:37;;;;;;;2.33;1.50;;;;;;;;;;4992111;28;20046;-83
2022/08/09 04:00:04;;;;;;;1.40;1.30;;;;;;;;;;4990347;28;20046;-83
2022/08/09 04:02:30;;;;;;;1.80;1.50;;;;;;;;;;4992590;28;20467;-83
2022/08/09 04:04:58;;;;;;;1.30;1.20;;;;;;;;;;4992166;28;20052;-83
2022/08/09 04:07:24;;;;;;;3.97;2.05;;;;;;;;;;5009784;28;20052;-83
2022/08/09 04:09:50;;;;;;;2.35;2.10;;;;;;;;;;5008599;28;20034;-83
2022/08/09 04:12:23;;;;;;;2.85;1.95;;;;;;;;;;4991720;28;20053;-83
2022/08/09 04:14:49;;;;;;;2.38;2.00;;;;;;;;;;5008972;28;20070;-83
2022/08/09 04:17:15;;;;;;;2.25;1.85;;;;;;;;;;5009413;28;20092;-83
2022/08/09 04:19:41;;;;;;;3.05;1.90;;;;;;;;;;5009256;28;20065;-83
2022/08/09 04:22:07;;;;;;;1.50;1.40;;;;;;;;;;5009504;28;20564;-83
2022/08/09 04:24:33;;;;;;;1.70;1.58;;;;;;;;;;5008875;28;20129;-83
2022/08/09 04:26:59;;;;;;;3.03;1.70;;;;;;;;;;5008828;28;20076;-83
2022/08/09 04:29:25;;;;;;;1.42;1.33;;;;;;;;;;4991492;28;20550;-83
2022/08/09 04:31:52;;;;;;;1.90;1.60;;;;;;;;;;4992079;28;20541;-83
2022/08/09 04:34:18;;;;;;;1.80;1.65;;;;;;;;;;5008785;28;20049;-84
2022/08/09 04:36:44;;;;;;;2.35;2.00;;;;;;;;;;4989726;28;20045;-83
2022/08/09 04:39:10;;;;;;;2.28;2.00;;;;;;;;;;5008853;28;20410;-83
2022/08/09 04:41:36;;;;;;;2.60;2.10;;;;;;;;;;5009373;28;20057;-83
2022/08/09 04:44:02;;;;;;;2.88;1.98;;;;;;;;;;5008857;28;20482;-83
2022/08/09 04:46:29;;;;;;;2.60;2.10;;;;;;;;;;5011489;28;20529;-83
2022/08/09 04:48:55;;;;;;;3.45;2.10;;;;;;;;;;5012668;28;20085;-83
2022/08/09 04:51:21;;;;;;;2.25;1.75;;;;;;;;;;4995719;28;20135;-83
2022/08/09 04:53:47;;;;;;;2.17;1.98;;;;;;;;;;4994733;28;20127;-84
2022/08/09 04:56:13;;;;;;;2.50;2.05;;;;;;;;;;5010265;28;20060;-83
2022/08/09 04:58:39;;;;;;;3.13;2.17;;;;;;;;;;4994475;28;20124;-83
2022/08/09 05:01:05;;;;;;;3.58;2.55;;;;;;;;;;4994640;28;20525;-83
2022/08/09 05:03:31;;;;;;;3.00;2.40;;;;;;;;;;4995114;28;20571;-83
2022/08/09 05:05:57;;;;;;;4.32;3.00;;;;;;;;;;4994032;28;20060;-83
2022/08/09 05:08:23;;;;;;;4.75;2.88;;;;;;;;;;5012130;28;20046;-83
2022/08/09 05:10:49;;;;;;;3.25;2.45;;;;;;;;;;5012498;28;20128;-84
2022/08/09 05:13:15;;;;;;;4.05;2.80;;;;;;;;;;5023802;28;20053;-84
2022/08/09 05:15:41;;;;;;;4.13;3.08;;;;;;;;;;5018986;28;20049;-84
2022/08/09 05:18:07;;;;;;;5.10;3.10;;;;;;;;;;5012134;28;20085;-84
2022/08/09 05:20:33;;;;;;;3.10;2.80;;;;;;;;;;5012447;28;20081;-84
2022/08/09 05:23:00;;;;;;;3.53;2.95;;;;;;;;;;5011884;28;20511;-84
2022/08/09 05:25:26;;;;;;;5.05;4.00;;;;;;;;;;5011855;28;20038;-84
2022/08/09 05:27:52;;;;;;;6.32;4.53;;;;;;;;;;4992789;28;20057;-84
2022/08/09 05:30:18;;;;;;;6.25;3.60;;;;;;;;;;5011738;28;20522;-84
2022/08/09 05:32:44;;;;;;;5.97;3.17;;;;;;;;;;5012084;28;20506;-84
2022/08/09 05:35:10;;;;;;;3.90;3.30;;;;;;;;;;5012095;28;20093;-84
2022/08/09 05:37:37;;;;;;;5.22;3.55;;;;;;;;;;5011519;28;20060;-84
2022/08/09 05:40:03;;;;;;;6.55;4.20;;;;;;;;;;4994701;28;20407;-84
2022/08/09 05:42:30;;;;;;;6.55;3.63;;;;;;;;;;4992349;28;20458;-84
2022/08/09 05:44:56;;;;;;;5.72;3.63;;;;;;;;;;4993386;28;20487;-84
2022/08/09 05:47:23;;;;;;;7.75;4.60;;;;;;;;;;4993141;28;20641;-84
2022/08/09 05:49:53;;;;;;;6.28;4.57;;;;;;;;;;5011228;28;20053;-84
2022/08/09 05:52:19;;;;;;;7.47;5.35;;;;;;;;;;5010549;28;20124;-85
2022/08/09 05:54:45;;;;;;;8.02;5.03;;;;;;;;;;4990819;28;20316;-84
2022/08/09 05:57:11;;;;;;;7.35;5.25;;;;;;;;;;5010136;28;20093;-83
2022/08/09 05:59:37;;;;;;;9.15;5.80;;;;;;;;;;5014531;28;20030;-86
2022/08/09 06:02:03;;;;;;;8.13;5.82;;;;;;;;;;4992692;28;20060;-84
2022/08/09 06:04:29;;;;;;;10.15;6.90;;;;;;;;;;5010693;28;20038;-86
2022/08/09 06:06:55;;;;;;;8.25;6.20;;;;;;;;;;5011159;28;20045;-84
2022/08/09 06:09:21;;;;;;;10.98;6.55;;;;;;;;;;5010155;28;20380;-84
2022/08/09 06:11:47;;;;;;;10.57;6.25;;;;;;;;;;4993486;28;20438;-84
2022/08/09 06:14:13;;;;;;;7.05;5.78;;;;;;;;;;5010216;28;21081;-84
2022/08/09 06:16:39;;;;;;;10.00;6.38;;;;;;;;;;4993312;28;20057;-84
2022/08/09 06:19:05;;;;;;;7.30;5.60;;;;;;;;;;5011085;28;20495;-84
2022/08/09 06:21:31;;;;;;;8.23;5.82;;;;;;;;;;4993818;28;20046;-84
2022/08/09 06:23:57;;;;;;;8.45;4.55;;;;;;;;;;5008029;28;20048;-84
2022/08/09 06:26:24;;;;;;;8.25;5.32;;;;;;;;;;5011063;28;20041;-83
2022/08/09 06:28:50;;;;;;;8.13;5.85;;;;;;;;;;4992752;28;20139;-84
2022/08/09 06:31:17;;;;;;;7.60;5.28;;;;;;;;;;5010303;28;20125;-84
2022/08/09 06:33:43;;;;;;;7.68;5.85;;;;;;;;;;5010858;28;20457;-85
2022/08/09 06:36:09;;;;;;;7.57;5.95;;;;;;;;;;4989886;28;20061;-84
2022/08/09 06:38:36;;;;;;;8.00;5.47;;;;;;;;;;5030090;28;20072;-84
2022/08/09 06:41:02;;;;;;;7.13;5.72;;;;;;;;;;5012558;28;20084;-84
2022/08/09 06:43:28;;;;;;;7.68;5.57;;;;;;;;;;4991407;28;20116;-83
2022/08/09 06:45:54;;;;;;;6.97;5.70;;;;;;;;;;5005907;28;20037;-85
2022/08/09 06:48:20;;;;;;;9.15;6.03;;;;;;;;;;4993304;28;20053;-84
2022/08/09 06:50:46;;;;;;;7.80;5.55;;;;;;;;;;5004550;28;20056;-84
2022/08/09 06:53:12;;;;;;;6.43;5.65;;;;;;;;;;4993283;28;20045;-84
2022/08/09 06:55:39;;;;;;;9.80;5.15;;;;;;;;;;5010647;28;20057;-84
2022/08/09 06:58:05;;;;;;;7.78;6.15;;;;;;;;;;5008801;28;20065;-84
2022/08/09 07:00:34;;;;;;;6.47;5.35;;;;;;;;;;4993183;28;20048;-93
2022/08/09 07:03:01;;;;;;;7.45;5.13;;;;;;;;;;5010220;28;20048;-86
2022/08/09 07:05:27;;;;;;;7.00;5.10;;;;;;;;;;4992853;28;20046;-84
2022/08/09 07:07:54;;;;;;;5.30;4.43;;;;;;;;;;4991406;28;20057;-84
2022/08/09 07:10:20;;;;;;;7.35;3.90;;;;;;;;;;4992548;28;20056;-84
2022/08/09 07:12:46;;;;;;;5.07;3.40;;;;;;;;;;5009233;28;20045;-83
2022/08/09 07:15:12;;;;;;;3.78;3.25;;;;;;;;;;5009596;28;20042;-84
2022/08/09 07:17:38;;;;;;;5.28;2.83;;;;;;;;;;4992703;28;20054;-84
2022/08/09 07:20:05;;;;;;;5.38;3.53;;;;;;;;;;5009564;28;20491;-83
2022/08/09 07:22:31;;;;;;;3.65;2.97;;;;;;;;;;5009015;28;20411;-84
2022/08/09 07:24:57;;;;;;;4.63;2.70;;;;;;;;;;5008951;28;20053;-84
2022/08/09 07:27:24;;;;;;;5.57;2.92;;;;;;;;;;5010402;28;20049;-83
2022/08/09 07:29:50;;;;;;;4.63;3.10;;;;;;;;;;4991514;28;20153;-82
2022/08/09 07:32:16;;;;;;;4.68;3.17;;;;;;;;;;5001724;28;20566;-83
2022/08/09 07:34:42;;;;;;;3.92;2.80;;;;;;;;;;4992474;28;20053;-83
2022/08/09 07:37:08;;;;;;;6.05;3.25;;;;;;;;;;5009364;28;20149;-83
2022/08/09 07:39:34;;;;;;;4.35;2.30;;;;;;;;;;4974096;28;20085;-83
2022/08/09 07:42:01;;;;;;;4.40;2.70;;;;;;;;;;4989188;28;20078;-83
2022/08/09 07:44:27;;;;;;;4.45;2.63;;;;;;;;;;4999708;28;20050;-83
2022/08/09 07:46:53;;;;;;;5.43;3.00;;;;;;;;;;4992269;28;20104;-83
2022/08/09 07:49:19;;;;;;;4.15;3.03;;;;;;;;;;4992232;28;20061;-83
2022/08/09 07:51:45;;;;;;;5.60;2.70;;;;;;;;;;5009719;28;20117;-83
2022/08/09 07:54:11;;;;;;;4.40;2.97;;;;;;;;;;5009100;28;20180;-83
2022/08/09 07:56:38;;;;;;;6.05;3.10;;;;;;;;;;5009863;28;20083;-83
2022/08/09 07:59:06;;;;;;;4.13;2.47;;;;;;;;;;5008873;28;20068;-83
2022/08/09 08:01:32;;;;;;;3.00;2.70;;;;;;;;;;5010263;28;20428;-83
2022/08/09 08:03:58;;;;;;;4.55;2.78;;;;;;;;;;5009572;28;20034;-83
2022/08/09 08:06:24;;;;;;;4.93;2.70;;;;;;;;;;5008175;28;20045;-84
2022/08/09 08:08:50;;;;;;;3.58;2.90;;;;;;;;;;5009115;28;20058;-83
2022/08/09 08:11:16;;;;;;;4.43;2.60;;;;;;;;;;5009518;28;20084;-83
2022/08/09 08:13:42;;;;;;;2.58;2.10;;;;;;;;;;5009046;28;20044;-83
2022/08/09 08:16:08;;;;;;;5.50;2.45;;;;;;;;;;5008876;28;20057;-83
2022/08/09 08:18:34;;;;;;;3.85;2.40;;;;;;;;;;5009627;28;20062;-83
2022/08/09 08:21:00;;;;;;;3.00;2.35;;;;;;;;;;4995086;28;20089;-83
2022/08/09 08:23:27;;;;;;;2.60;2.10;;;;;;;;;;5012941;28;20136;-83
2022/08/09 08:25:53;;;;;;;3.70;2.17;;;;;;;;;;4995866;28;20045;-83
2022/08/09 08:28:20;;;;;;;3.15;2.13;;;;;;;;;;4995844;28;20124;-83
2022/08/09 08:30:46;;;;;;;4.15;2.30;;;;;;;;;;5012769;28;20129;-84
2022/08/09 08:33:12;;;;;;;3.83;2.10;;;;;;;;;;4995307;28;20112;-83
2022/08/09 08:35:39;;;;;;;3.45;2.40;;;;;;;;;;5012814;28;20045;-83
2022/08/09 08:38:05;;;;;;;3.60;2.10;;;;;;;;;;5012344;28;20121;-83
2022/08/09 08:40:32;;;;;;;2.22;2.00;;;;;;;;;;5013079;28;20455;-83
2022/08/09 08:42:58;;;;;;;3.72;2.22;;;;;;;;;;5012716;28;20054;-83
2022/08/09 08:45:26;;;;;;;4.30;2.30;;;;;;;;;;5012610;28;20038;-85
2022/08/09 08:47:53;;;;;;;3.30;2.10;;;;;;;;;;5012404;28;20105;-87
2022/08/09 08:50:19;;;;;;;3.55;2.10;;;;;;;;;;5012892;28;20148;-88
2022/08/09 08:52:47;;;;;;;3.05;2.33;;;;;;;;;;5010023;28;20670;-83
2022/08/09 08:55:14;;;;;;;2.72;2.28;;;;;;;;;;5012831;28;20068;-83
2022/08/09 08:57:41;;;;;;;3.03;2.13;;;;;;;;;;5012237;28;20508;-83
2022/08/09 09:00:09;;;;;;;2.85;1.92;;;;;;;;;;5011141;28;20044;-83
2022/08/09 09:02:35;;;;;;;5.90;2.63;;;;;;;;;;5011075;28;20054;-83
2022/08/09 09:05:01;;;;;;;3.35;2.10;;;;;;;;;;4993950;28;20046;-83
2022/08/09 09:07:29;;;;;;;3.35;2.10;;;;;;;;;;5011270;28;20124;-83
2022/08/09 09:09:57;;;;;;;2.97;2.10;;;;;;;;;;5011515;28;20100;-83
2022/08/09 09:12:26;;;;;;;4.68;2.65;;;;;;;;;;5011670;28;20053;-83
2022/08/09 09:14:53;;;;;;;3.53;2.30;;;;;;;;;;5008118;28;20541;-83
2022/08/09 09:17:19;;;;;;;4.75;2.30;;;;;;;;;;5010076;28;20053;-83
2022/08/09 09:19:45;;;;;;;2.70;2.00;;;;;;;;;;5010074;28;20054;-83
2022/08/09 09:22:16;;;;;;;3.13;2.03;;;;;;;;;;4994735;28;20053;-83
2022/08/09 09:24:46;;;;;;;2.70;1.80;;;;;;;;;;4994908;28;20053;-83
2022/08/09 09:27:14;;;;;;;1.90;1.70;;;;;;;;;;5008972;28;20157;-83
2022/08/09 09:29:41;;;;;;;2.17;1.77;;;;;;;;;;4998413;28;20104;-83
2022/08/09 09:32:08;;;;;;;2.95;1.90;;;;;;;;;;4998831;28;20076;-83
2022/08/09 09:34:34;;;;;;;4.07;1.90;;;;;;;;;;4991405;28;20924;-83
2022/08/09 09:37:01;;;;;;;2.10;1.80;;;;;;;;;;5010896;28;20080;-83
2022/08/09 09:39:27;;;;;;;2.17;1.90;;;;;;;;;;5011695;28;20129;-83
2022/08/09 09:41:54;;;;;;;2.65;1.90;;;;;;;;;;5012626;28;20046;-83
2022/08/09 09:44:33;;;;;;;2.92;1.95;;;;;;;;;;5011589;28;20099;-83
2022/08/09 09:47:08;;;;;;;2.15;1.95;;;;;;;;;;5010564;28;20101;-83
2022/08/09 09:49:34;;;;;;;1.75;1.63;;;;;;;;;;5011973;28;20054;-83
2022/08/09 09:52:10;;;;;;;4.55;1.60;;;;;;;;;;5010877;28;20069;-83
2022/08/09 09:54:37;;;;;;;3.72;2.00;;;;;;;;;;5011767;28;20483;-82
2022/08/09 09:57:14;;;;;;;4.25;1.83;;;;;;;;;;4993906;28;20144;-84
2022/08/09 09:59:41;;;;;;;1.85;1.60;;;;;;;;;;5010114;28;20053;-84
2022/08/09 10:02:07;;;;;;;1.92;1.60;;;;;;;;;;5008447;28;20042;-84
2022/08/09 10:04:34;;;;;;;2.55;1.40;;;;;;;;;;5010639;28;20046;-83
2022/08/09 10:07:00;;;;;;;1.65;1.55;;;;;;;;;;5010448;28;20092;-85
2022/08/09 10:09:26;;;;;;;1.70;1.60;;;;;;;;;;5010525;28;20050;-84
2022/08/09 10:11:56;;;;;;;1.63;1.52;;;;;;;;;;5018277;28;20084;-85
2022/08/09 10:14:27;;;;;;;2.30;1.52;;;;;;;;;;5019528;28;20049;-84
2022/08/09 10:16:53;;;;;;;1.25;1.15;;;;;;;;;;5010393;28;20062;-84
2022/08/09 10:19:20;;;;;;;1.25;1.05;;;;;;;;;;5020634;28;20045;-84
2022/08/09 10:21:48;;;;;;;1.85;1.40;;;;;;;;;;5012234;28;20057;-84
2022/08/09 10:24:14;;;;;;;2.17;1.30;;;;;;;;;;5022770;28;20045;-84
2022/08/09 10:26:41;;;;;;;1.50;1.35;;;;;;;;;;4993125;28;20041;-85
2022/08/09 10:29:07;;;;;;;1.58;1.20;;;;;;;;;;5003303;28;20042;-84
2022/08/09 10:31:33;;;;;;;1.35;1.25;;;;;;;;;;4973821;28;20077;-84
2022/08/09 10:33:59;;;;;;;1.38;1.27;;;;;;;;;;5004449;28;20038;-85
2022/08/09 10:36:25;;;;;;;1.83;1.33;;;;;;;;;;5010819;28;20046;-84
2022/08/09 10:38:51;;;;;;;1.85;1.30;;;;;;;;;;5010353;28;20099;-83
2022/08/09 10:41:18;;;;;;;1.23;1.13;;;;;;;;;;5008983;28;20042;-83
2022/08/09 10:43:45;;;;;;;1.80;1.30;;;;;;;;;;5009908;28;20038;-83
2022/08/09 10:46:20;;;;;;;1.83;1.30;;;;;;;;;;5010024;28;20042;-82
2022/08/09 10:48:50;;;;;;;1.30;1.20;;;;;;;;;;4993239;28;20414;-83
2022/08/09 10:51:34;;;;;;;1.50;1.40;;;;;;;;;;5010642;28;20050;-83
2022/08/09 10:54:09;;;;;;;2.58;1.73;;;;;;;;;;5009785;28;20510;-83
2022/08/09 10:56:36;;;;;;;1.52;1.42;;;;;;;;;;5010534;28;20439;-83
2022/08/09 10:59:22;;;;;;;1.40;1.30;;;;;;;;;;5009173;28;20078;-84
2022/08/09 11:01:49;;;;;;;1.45;1.35;;;;;;;;;;5009685;28;20091;-83
2022/08/09 11:04:22;;;;;;;1.67;1.30;;;;;;;;;;4994340;28;20076;-83
2022/08/09 11:06:50;;;;;;;3.10;1.50;;;;;;;;;;5019028;28;20045;-83
2022/08/09 11:09:17;;;;;;;1.88;1.63;;;;;;;;;;5007581;28;20044;-83
2022/08/09 11:11:56;;;;;;;2.33;1.42;;;;;;;;;;5009898;28;20534;-83
2022/08/09 11:14:34;;;;;;;1.60;1.48;;;;;;;;;;4998078;28;20129;-84
2022/08/09 11:17:00;;;;;;;2.08;1.60;;;;;;;;;;5007821;28;20402;-83
2022/08/09 11:19:45;;;;;;;2.28;1.60;;;;;;;;;;5029128;28;20068;-84
2022/08/09 11:22:11;;;;;;;2.55;1.63;;;;;;;;;;5028227;28;20042;-83
2022/08/09 11:24:55;;;;;;;2.50;1.50;;;;;;;;;;5026182;28;20124;-83
2022/08/09 11:27:29;;;;;;;2.42;1.55;;;;;;;;;;5011927;28;20052;-83
2022/08/09 11:29:55;;;;;;;3.28;1.80;;;;;;;;;;5009168;28;20046;-83
2022/08/09 11:32:40;;;;;;;1.77;1.55;;;;;;;;;;5008101;28;20510;-83
2022/08/09 11:35:26;;;;;;;1.90;1.37;;;;;;;;;;5013481;28;20522;-83
2022/08/09 11:37:57;;;;;;;2.22;1.63;;;;;;;;;;5013984;28;20111;-83
2022/08/09 11:40:23;;;;;;;2.15;1.50;;;;;;;;;;5008968;28;20041;-83
2022/08/09 11:42:50;;;;;;;2.03;1.52;;;;;;;;;;5013673;28;20045;-83
2022/08/09 11:45:20;;;;;;;2.88;1.60;;;;;;;;;;5013187;28;20049;-83
2022/08/09 11:47:51;;;;;;;2.33;1.42;;;;;;;;;;5014794;28;20053;-83
2022/08/09 11:50:17;;;;;;;1.70;1.50;;;;;;;;;;5009419;28;20119;-83
2022/08/09 11:53:06;;;;;;;2.13;1.52;;;;;;;;;;5009153;28;20262;-84
2022/08/09 11:55:36;;;;;;;1.50;1.40;;;;;;;;;;5009874;28;20050;-83
2022/08/09 11:58:11;;;;;;;3.67;1.42;;;;;;;;;;5013748;28;20076;-84
2022/08/09 12:00:46;;;;;;;1.50;1.40;;;;;;;;;;5007268;28;20056;-84
2022/08/09 12:03:15;;;;;;;4.38;1.67;;;;;;;;;;5023284;28;20049;-83
2022/08/09 12:05:41;;;;;;;2.45;1.67;;;;;;;;;;5015740;28;20097;-83
2022/08/09 12:08:08;;;;;;;1.35;1.25;;;;;;;;;;5018090;28;20046;-83
2022/08/09 12:10:34;;;;;;;3.83;1.55;;;;;;;;;;5013744;28;20046;-83
2022/08/09 12:13:00;;;;;;;2.67;1.67;;;;;;;;;;5015115;28;20103;-83
2022/08/09 12:15:27;;;;;;;1.63;1.42;;;;;;;;;;5005371;28;20050;-84
2022/08/09 12:17:54;;;;;;;2.03;1.60;;;;;;;;;;5017609;28;20049;-83
2022/08/09 12:20:22;;;;;;;4.47;1.60;;;;;;;;;;5011636;28;20116;-84
2022/08/09 12:22:48;;;;;;;2.97;1.55;;;;;;;;;;4995633;28;20410;-83
2022/08/09 12:25:16;;;;;;;1.70;1.50;;;;;;;;;;5010083;28;20042;-84
2022/08/09 12:27:42;;;;;;;1.38;1.27;;;;;;;;;;4993178;28;20061;-83
2022/08/09 12:30:08;;;;;;;1.63;1.52;;;;;;;;;;5010861;28;20049;-83
2022/08/09 12:32:35;;;;;;;2.55;1.58;;;;;;;;;;4998258;28;20053;-83
2022/08/09 12:35:02;;;;;;;1.77;1.52;;;;;;;;;;5023161;28;20042;-83
2022/08/09 12:37:46;;;;;;;1.77;1.42;;;;;;;;;;5025492;28;20304;-83
2022/08/09 12:40:12;;;;;;;2.22;1.40;;;;;;;;;;5010031;28;20199;-84
2022/08/09 12:42:45;;;;;;;1.40;1.30;;;;;;;;;;4991233;28;20490;-93
2022/08/09 12:45:11;;;;;;;2.53;1.60;;;;;;;;;;5009048;28;20046;-84
2022/08/09 12:47:38;;;;;;;1.30;1.20;;;;;;;;;;4994537;28;20050;-84
2022/08/09 12:50:16;;;;;;;1.88;1.30;;;;;;;;;;4992343;28;20054;-85
2022/08/09 12:52:43;;;;;;;1.45;1.13;;;;;;;;;;5012365;28;20042;-84
2022/08/09 12:55:09;;;;;;;1.88;1.45;;;;;;;;;;5009421;28;20055;-84
2022/08/09 12:57:36;;;;;;;1.75;1.30;;;;;;;;;;5024137;28;20045;-85
2022/08/09 13:00:17;;;;;;;1.33;1.20;;;;;;;;;;5030371;28;20046;-84
2022/08/09 13:03:01;;;;;;;2.25;1.13;;;;;;;;;;5012509;28;20056;-84
2022/08/09 13:05:39;;;;;;;2.30;1.40;;;;;;;;;;5009726;28;20455;-84
2022/08/09 13:08:16;;;;;;;7.60;1.65;;;;;;;;;;5011007;28;20100;-84
2022/08/09 13:10:51;;;;;;;1.30;1.20;;;;;;;;;;5030018;28;20049;-84
2022/08/09 13:13:27;;;;;;;3.20;1.55;;;;;;;;;;5030046;28;20053;-84
2022/08/09 13:15:58;;;;;;;1.92;1.50;;;;;;;;;;5013385;28;20115;-84
2022/08/09 13:18:26;;;;;;;1.40;1.30;;;;;;;;;;5016004;28;20073;-84
2022/08/09 13:20:52;;;;;;;1.80;1.20;;;;;;;;;;5030339;28;20187;-84
2022/08/09 13:23:19;;;;;;;3.25;1.35;;;;;;;;;;4993619;28;20534;-85
2022/08/09 13:25:46;;;;;;;1.50;1.40;;;;;;;;;;4995363;28;20087;-84
2022/08/09 13:28:14;;;;;;;1.52;1.42;;;;;;;;;;5024194;28;20060;-84
2022/08/09 13:30:41;;;;;;;2.15;1.70;;;;;;;;;;5011396;28;20081;-84
2022/08/09 13:33:07;;;;;;;1.38;1.30;;;;;;;;;;5013827;28;20057;-84
2022/08/09 13:35:33;;;;;;;2.45;1.50;;;;;;;;;;5013425;28;20048;-84
2022/08/09 13:37:59;;;;;;;1.90;1.45;;;;;;;;;;5025125;28;20108;-84
2022/08/09 13:40:25;;;;;;;1.50;1.40;;;;;;;;;;4992037;28;20041;-84
2022/08/09 13:42:51;;;;;;;2.15;1.70;;;;;;;;;;4992204;28;20483;-84
2022/08/09 13:45:18;;;;;;;2.33;1.77;;;;;;;;;;5006556;28;20481;-84
2022/08/09 13:47:44;;;;;;;1.58;1.38;;;;;;;;;;4955530;28;1100575;-84
2022/08/09 13:50:18;;;;;;;1.60;1.33;;;;;;;;;;5031868;28;20084;-84
2022/08/09 13:52:44;;;;;;;2.53;1.60;;;;;;;;;;5025082;28;20042;-84
2022/08/09 13:55:13;;;;;;;1.27;1.15;;;;;;;;;;5013371;28;20129;-84
2022/08/09 13:57:41;;;;;;;2.10;1.70;;;;;;;;;;5009590;28;20488;-84
2022/08/09 14:00:10;;;;;;;2.45;1.60;;;;;;;;;;4993134;28;20876;-84
2022/08/09 14:02:36;;;;;;;1.60;1.48;;;;;;;;;;4994485;28;20061;-84
2022/08/09 14:05:02;;;;;;;2.63;1.52;;;;;;;;;;5030238;28;20729;-84
2022/08/09 14:07:28;;;;;;;1.50;1.40;;;;;;;;;;5031738;28;20081;-84
2022/08/09 14:09:54;;;;;;;1.63;1.40;;;;;;;;;;5008729;28;20418;-84
2022/08/09 14:12:20;;;;;;;1.98;1.40;;;;;;;;;;4993032;28;20477;-85
2022/08/09 14:14:46;;;;;;;2.35;1.50;;;;;;;;;;5003110;28;20057;-84
2022/08/09 14:17:12;;;;;;;2.15;1.60;;;;;;;;;;5007294;28;20046;-84
2022/08/09 14:19:38;;;;;;;1.88;1.65;;;;;;;;;;5019769;28;20044;-84
2022/08/09 14:22:04;;;;;;;2.13;1.42;;;;;;;;;;5007924;28;20050;-84
2022/08/09 14:24:30;;;;;;;1.65;1.42;;;;;;;;;;5009945;28;20419;-84
2022/08/09 14:26:56;;;;;;;2.20;1.38;;;;;;;;;;5010401;28;20117;-84
2022/08/09 14:29:22;;;;;;;3.05;1.60;;;;;;;;;;5009279;28;20491;-83
2022/08/09 14:31:49;;;;;;;1.58;1.20;;;;;;;;;;5011190;28;20054;-83
2022/08/09 14:34:15;;;;;;;1.48;1.23;;;;;;;;;;4992958;28;20049;-84
2022/08/09 14:36:41;;;;;;;1.77;1.40;;;;;;;;;;4990734;28;20030;-84
2022/08/09 14:39:07;;;;;;;1.70;1.30;;;;;;;;;;5008650;28;20045;-84
2022/08/09 14:41:33;;;;;;;1.63;1.38;;;;;;;;;;5004280;28;20046;-84
2022/08/09 14:43:59;;;;;;;1.45;1.10;;;;;;;;;;5010119;28;20041;-84
2022/08/09 14:46:25;;;;;;;1.63;1.05;;;;;;;;;;4996750;28;20045;-84